Aviation Digital Data Service (ADDS)

Output produced by METARs form (1631 UTC 30 May 2015)
found at http://aviationweather.gov/adds/metars/
 
KSWF 301125Z 3012/3118 24007KT P6SM SCT030 BKN250 
     FM301500 21012KT P6SM BKN040 
     FM301900 22013KT P6SM VCSH BKN040 
     FM310000 24007KT P6SM VCSH OVC040 
     FM310800 24005KT 5SM -SHRA VCTS OVC030CB AMD NOT SKED